sensor_id;sensor_type;location;lat;lon;timestamp;P1;durP1;ratioP1;P2;durP2;ratioP2
31734;SDS011;18313;48.518;9.124;2022-12-05T00:01:28;25.55;;;12.60;;
31734;SDS011;18313;48.518;9.124;2022-12-05T00:04:16;24.77;;;12.27;;
31734;SDS011;18313;48.518;9.124;2022-12-05T00:07:01;24.80;;;12.32;;
31734;SDS011;18313;48.518;9.124;2022-12-05T00:09:47;26.52;;;12.93;;
31734;SDS011;18313;48.518;9.124;2022-12-05T00:12:32;23.30;;;11.15;;
31734;SDS011;18313;48.518;9.124;2022-12-05T00:15:18;25.55;;;12.73;;
31734;SDS011;18313;48.518;9.124;2022-12-05T00:18:03;23.35;;;11.18;;
31734;SDS011;18313;48.518;9.124;2022-12-05T00:20:49;25.65;;;11.27;;
31734;SDS011;18313;48.518;9.124;2022-12-05T00:23:34;23.60;;;11.63;;
31734;SDS011;18313;48.518;9.124;2022-12-05T00:26:20;22.55;;;11.20;;
31734;SDS011;18313;48.518;9.124;2022-12-05T00:29:06;21.95;;;11.20;;
31734;SDS011;18313;48.518;9.124;2022-12-05T00:31:51;23.92;;;11.65;;
31734;SDS011;18313;48.518;9.124;2022-12-05T00:34:37;25.08;;;12.25;;
31734;SDS011;18313;48.518;9.124;2022-12-05T00:37:23;24.52;;;11.73;;
31734;SDS011;18313;48.518;9.124;2022-12-05T00:40:09;22.58;;;11.45;;
31734;SDS011;18313;48.518;9.124;2022-12-05T00:42:54;22.95;;;11.85;;
31734;SDS011;18313;48.518;9.124;2022-12-05T00:45:40;27.00;;;11.95;;
31734;SDS011;18313;48.518;9.124;2022-12-05T00:48:26;24.77;;;11.93;;
31734;SDS011;18313;48.518;9.124;2022-12-05T00:51:16;22.58;;;10.80;;
31734;SDS011;18313;48.518;9.124;2022-12-05T00:54:14;25.67;;;11.98;;
31734;SDS011;18313;48.518;9.124;2022-12-05T00:57:00;25.48;;;11.90;;
31734;SDS011;18313;48.518;9.124;2022-12-05T00:59:46;24.38;;;11.45;;
31734;SDS011;18313;48.518;9.124;2022-12-05T01:02:31;26.77;;;12.00;;
31734;SDS011;18313;48.518;9.124;2022-12-05T01:05:17;26.90;;;12.32;;
31734;SDS011;18313;48.518;9.124;2022-12-05T01:08:02;24.98;;;11.85;;
31734;SDS011;18313;48.518;9.124;2022-12-05T01:10:52;23.67;;;12.05;;
31734;SDS011;18313;48.518;9.124;2022-12-05T01:13:41;22.85;;;12.05;;
31734;SDS011;18313;48.518;9.124;2022-12-05T01:16:28;28.25;;;12.18;;
31734;SDS011;18313;48.518;9.124;2022-12-05T01:19:17;27.70;;;12.35;;
31734;SDS011;18313;48.518;9.124;2022-12-05T01:22:07;25.02;;;11.60;;
31734;SDS011;18313;48.518;9.124;2022-12-05T01:24:52;25.73;;;12.45;;
31734;SDS011;18313;48.518;9.124;2022-12-05T01:27:38;27.25;;;11.82;;
31734;SDS011;18313;48.518;9.124;2022-12-05T01:30:23;25.98;;;12.30;;
31734;SDS011;18313;48.518;9.124;2022-12-05T01:33:09;26.52;;;11.82;;
31734;SDS011;18313;48.518;9.124;2022-12-05T01:35:55;30.50;;;12.63;;
31734;SDS011;18313;48.518;9.124;2022-12-05T01:38:41;27.13;;;12.32;;
31734;SDS011;18313;48.518;9.124;2022-12-05T01:41:29;28.08;;;11.85;;
31734;SDS011;18313;48.518;9.124;2022-12-05T01:47:01;26.80;;;11.95;;
31734;SDS011;18313;48.518;9.124;2022-12-05T01:49:47;27.05;;;11.77;;
31734;SDS011;18313;48.518;9.124;2022-12-05T01:52:32;26.80;;;12.52;;
31734;SDS011;18313;48.518;9.124;2022-12-05T01:55:19;28.05;;;12.00;;
31734;SDS011;18313;48.518;9.124;2022-12-05T01:58:05;30.08;;;12.95;;
31734;SDS011;18313;48.518;9.124;2022-12-05T02:00:53;30.85;;;13.38;;
31734;SDS011;18313;48.518;9.124;2022-12-05T02:03:39;27.58;;;12.23;;
31734;SDS011;18313;48.518;9.124;2022-12-05T02:06:26;30.15;;;13.18;;
31734;SDS011;18313;48.518;9.124;2022-12-05T02:09:12;28.88;;;11.98;;
31734;SDS011;18313;48.518;9.124;2022-12-05T02:11:58;35.05;;;14.32;;
31734;SDS011;18313;48.518;9.124;2022-12-05T02:14:48;32.08;;;13.43;;
31734;SDS011;18313;48.518;9.124;2022-12-05T02:20:39;30.80;;;13.53;;
31734;SDS011;18313;48.518;9.124;2022-12-05T02:30:09;29.13;;;13.80;;
31734;SDS011;18313;48.518;9.124;2022-12-05T02:36:10;34.25;;;13.60;;
31734;SDS011;18313;48.518;9.124;2022-12-05T02:39:17;29.38;;;13.20;;
31734;SDS011;18313;48.518;9.124;2022-12-05T02:42:13;28.67;;;12.70;;
31734;SDS011;18313;48.518;9.124;2022-12-05T02:45:07;28.83;;;13.07;;
31734;SDS011;18313;48.518;9.124;2022-12-05T02:47:56;25.58;;;11.75;;
31734;SDS011;18313;48.518;9.124;2022-12-05T02:50:44;31.23;;;12.75;;
31734;SDS011;18313;48.518;9.124;2022-12-05T02:53:32;24.73;;;11.18;;
31734;SDS011;18313;48.518;9.124;2022-12-05T02:56:20;25.90;;;11.63;;
31734;SDS011;18313;48.518;9.124;2022-12-05T02:59:06;26.85;;;11.55;;
31734;SDS011;18313;48.518;9.124;2022-12-05T03:01:52;30.70;;;12.55;;
31734;SDS011;18313;48.518;9.124;2022-12-05T03:04:38;22.02;;;10.20;;
31734;SDS011;18313;48.518;9.124;2022-12-05T03:07:23;24.30;;;11.38;;
31734;SDS011;18313;48.518;9.124;2022-12-05T03:10:12;23.10;;;11.15;;
31734;SDS011;18313;48.518;9.124;2022-12-05T03:13:04;20.48;;;10.18;;
31734;SDS011;18313;48.518;9.124;2022-12-05T03:18:55;23.52;;;10.05;;
31734;SDS011;18313;48.518;9.124;2022-12-05T03:21:46;22.08;;;10.48;;
31734;SDS011;18313;48.518;9.124;2022-12-05T03:24:38;26.13;;;10.88;;
31734;SDS011;18313;48.518;9.124;2022-12-05T03:30:18;22.88;;;10.73;;
31734;SDS011;18313;48.518;9.124;2022-12-05T03:36:05;28.65;;;13.80;;
31734;SDS011;18313;48.518;9.124;2022-12-05T03:39:04;35.13;;;16.40;;
31734;SDS011;18313;48.518;9.124;2022-12-05T03:41:59;26.70;;;11.95;;
31734;SDS011;18313;48.518;9.124;2022-12-05T03:48:44;29.40;;;13.82;;
31734;SDS011;18313;48.518;9.124;2022-12-05T03:51:03;34.53;;;14.85;;
31734;SDS011;18313;48.518;9.124;2022-12-05T03:53:55;26.75;;;13.68;;
31734;SDS011;18313;48.518;9.124;2022-12-05T03:56:48;29.48;;;12.93;;
31734;SDS011;18313;48.518;9.124;2022-12-05T03:59:52;30.92;;;12.15;;
31734;SDS011;18313;48.518;9.124;2022-12-05T04:02:48;27.20;;;12.48;;
31734;SDS011;18313;48.518;9.124;2022-12-05T04:05:47;25.65;;;11.45;;
31734;SDS011;18313;48.518;9.124;2022-12-05T04:08:42;26.17;;;12.15;;
31734;SDS011;18313;48.518;9.124;2022-12-05T04:11:32;24.88;;;11.60;;
31734;SDS011;18313;48.518;9.124;2022-12-05T04:14:25;27.20;;;11.77;;
31734;SDS011;18313;48.518;9.124;2022-12-05T04:17:17;27.20;;;12.75;;
31734;SDS011;18313;48.518;9.124;2022-12-05T04:20:33;24.55;;;11.52;;
31734;SDS011;18313;48.518;9.124;2022-12-05T04:23:44;22.60;;;10.77;;
31734;SDS011;18313;48.518;9.124;2022-12-05T04:26:58;24.45;;;11.57;;
31734;SDS011;18313;48.518;9.124;2022-12-05T04:33:02;24.83;;;11.32;;
31734;SDS011;18313;48.518;9.124;2022-12-05T04:35:54;24.20;;;11.20;;
31734;SDS011;18313;48.518;9.124;2022-12-05T04:39:02;24.80;;;11.95;;
31734;SDS011;18313;48.518;9.124;2022-12-05T04:42:11;22.25;;;10.75;;
31734;SDS011;18313;48.518;9.124;2022-12-05T04:45:04;19.98;;;9.95;;
31734;SDS011;18313;48.518;9.124;2022-12-05T04:47:53;22.63;;;11.02;;
31734;SDS011;18313;48.518;9.124;2022-12-05T04:50:46;26.55;;;11.50;;
31734;SDS011;18313;48.518;9.124;2022-12-05T04:53:35;27.75;;;12.63;;
31734;SDS011;18313;48.518;9.124;2022-12-05T04:56:21;27.63;;;11.95;;
31734;SDS011;18313;48.518;9.124;2022-12-05T04:59:10;23.30;;;11.68;;
31734;SDS011;18313;48.518;9.124;2022-12-05T05:01:57;27.00;;;12.98;;
31734;SDS011;18313;48.518;9.124;2022-12-05T05:04:48;29.73;;;13.65;;
31734;SDS011;18313;48.518;9.124;2022-12-05T05:07:44;31.00;;;13.75;;
31734;SDS011;18313;48.518;9.124;2022-12-05T05:10:32;29.55;;;13.18;;
31734;SDS011;18313;48.518;9.124;2022-12-05T05:13:23;32.92;;;16.77;;
31734;SDS011;18313;48.518;9.124;2022-12-05T05:16:13;27.20;;;13.38;;
31734;SDS011;18313;48.518;9.124;2022-12-05T05:19:02;23.90;;;12.68;;
31734;SDS011;18313;48.518;9.124;2022-12-05T05:21:49;26.73;;;13.45;;
31734;SDS011;18313;48.518;9.124;2022-12-05T05:24:35;30.20;;;16.83;;
31734;SDS011;18313;48.518;9.124;2022-12-05T05:27:21;29.85;;;14.75;;
31734;SDS011;18313;48.518;9.124;2022-12-05T05:30:06;21.88;;;11.70;;
31734;SDS011;18313;48.518;9.124;2022-12-05T05:32:53;20.63;;;11.50;;
31734;SDS011;18313;48.518;9.124;2022-12-05T05:35:38;22.23;;;10.98;;
31734;SDS011;18313;48.518;9.124;2022-12-05T05:38:24;24.67;;;11.07;;
31734;SDS011;18313;48.518;9.124;2022-12-05T05:41:14;23.60;;;10.75;;
31734;SDS011;18313;48.518;9.124;2022-12-05T05:44:11;19.17;;;10.02;;
31734;SDS011;18313;48.518;9.124;2022-12-05T05:46:56;23.95;;;10.88;;
31734;SDS011;18313;48.518;9.124;2022-12-05T05:49:42;23.20;;;11.05;;
31734;SDS011;18313;48.518;9.124;2022-12-05T05:52:27;23.02;;;10.93;;
31734;SDS011;18313;48.518;9.124;2022-12-05T05:55:13;22.13;;;10.52;;
31734;SDS011;18313;48.518;9.124;2022-12-05T05:57:58;30.20;;;14.57;;
31734;SDS011;18313;48.518;9.124;2022-12-05T06:00:44;29.25;;;12.85;;
31734;SDS011;18313;48.518;9.124;2022-12-05T06:03:29;25.40;;;12.90;;
31734;SDS011;18313;48.518;9.124;2022-12-05T06:06:15;24.67;;;11.40;;
31734;SDS011;18313;48.518;9.124;2022-12-05T06:09:02;21.55;;;10.98;;
31734;SDS011;18313;48.518;9.124;2022-12-05T06:11:50;25.17;;;10.85;;
31734;SDS011;18313;48.518;9.124;2022-12-05T06:14:35;23.20;;;10.77;;
31734;SDS011;18313;48.518;9.124;2022-12-05T06:17:21;23.10;;;11.20;;
31734;SDS011;18313;48.518;9.124;2022-12-05T06:20:07;21.70;;;10.68;;
31734;SDS011;18313;48.518;9.124;2022-12-05T06:22:54;21.40;;;11.90;;
31734;SDS011;18313;48.518;9.124;2022-12-05T06:25:39;22.33;;;11.68;;
31734;SDS011;18313;48.518;9.124;2022-12-05T06:28:30;23.67;;;10.95;;
31734;SDS011;18313;48.518;9.124;2022-12-05T06:31:18;23.42;;;10.82;;
31734;SDS011;18313;48.518;9.124;2022-12-05T06:34:05;19.58;;;10.48;;
31734;SDS011;18313;48.518;9.124;2022-12-05T06:36:51;17.95;;;9.77;;
31734;SDS011;18313;48.518;9.124;2022-12-05T06:39:37;18.35;;;10.13;;
31734;SDS011;18313;48.518;9.124;2022-12-05T06:42:22;21.17;;;10.98;;
31734;SDS011;18313;48.518;9.124;2022-12-05T06:45:08;23.13;;;11.15;;
31734;SDS011;18313;48.518;9.124;2022-12-05T06:47:54;21.95;;;11.35;;
31734;SDS011;18313;48.518;9.124;2022-12-05T06:50:39;22.85;;;11.05;;
31734;SDS011;18313;48.518;9.124;2022-12-05T06:53:32;21.65;;;10.55;;
31734;SDS011;18313;48.518;9.124;2022-12-05T06:56:18;21.45;;;11.20;;
31734;SDS011;18313;48.518;9.124;2022-12-05T06:59:04;21.38;;;12.10;;
31734;SDS011;18313;48.518;9.124;2022-12-05T07:01:49;21.83;;;11.88;;
31734;SDS011;18313;48.518;9.124;2022-12-05T07:04:35;21.98;;;10.60;;
31734;SDS011;18313;48.518;9.124;2022-12-05T07:07:21;19.10;;;10.13;;
31734;SDS011;18313;48.518;9.124;2022-12-05T07:10:07;24.20;;;10.93;;
31734;SDS011;18313;48.518;9.124;2022-12-05T07:12:52;23.65;;;11.63;;
31734;SDS011;18313;48.518;9.124;2022-12-05T07:15:40;22.00;;;10.98;;
31734;SDS011;18313;48.518;9.124;2022-12-05T07:18:25;22.83;;;11.48;;
31734;SDS011;18313;48.518;9.124;2022-12-05T07:21:13;20.23;;;10.77;;
31734;SDS011;18313;48.518;9.124;2022-12-05T07:24:00;21.92;;;11.57;;
31734;SDS011;18313;48.518;9.124;2022-12-05T07:26:45;22.48;;;11.15;;
31734;SDS011;18313;48.518;9.124;2022-12-05T07:29:31;19.98;;;11.00;;
31734;SDS011;18313;48.518;9.124;2022-12-05T07:32:16;20.33;;;10.70;;
31734;SDS011;18313;48.518;9.124;2022-12-05T07:35:02;18.17;;;10.73;;
31734;SDS011;18313;48.518;9.124;2022-12-05T07:37:47;18.15;;;10.25;;
31734;SDS011;18313;48.518;9.124;2022-12-05T07:40:33;19.95;;;10.27;;
31734;SDS011;18313;48.518;9.124;2022-12-05T07:43:19;20.08;;;10.63;;
31734;SDS011;18313;48.518;9.124;2022-12-05T07:46:06;20.50;;;10.40;;
31734;SDS011;18313;48.518;9.124;2022-12-05T07:48:52;22.65;;;10.55;;
31734;SDS011;18313;48.518;9.124;2022-12-05T07:51:38;18.48;;;10.40;;
31734;SDS011;18313;48.518;9.124;2022-12-05T07:54:23;21.85;;;11.20;;
31734;SDS011;18313;48.518;9.124;2022-12-05T07:57:09;19.95;;;10.48;;
31734;SDS011;18313;48.518;9.124;2022-12-05T07:59:55;18.73;;;10.07;;
31734;SDS011;18313;48.518;9.124;2022-12-05T08:02:41;18.90;;;10.43;;
31734;SDS011;18313;48.518;9.124;2022-12-05T08:05:26;19.08;;;10.65;;
31734;SDS011;18313;48.518;9.124;2022-12-05T08:08:12;18.45;;;9.90;;
31734;SDS011;18313;48.518;9.124;2022-12-05T08:11:08;17.70;;;9.70;;
31734;SDS011;18313;48.518;9.124;2022-12-05T08:13:56;16.55;;;9.95;;
31734;SDS011;18313;48.518;9.124;2022-12-05T08:16:42;19.30;;;10.20;;
31734;SDS011;18313;48.518;9.124;2022-12-05T08:19:28;20.52;;;11.25;;
31734;SDS011;18313;48.518;9.124;2022-12-05T08:22:13;24.83;;;13.13;;
31734;SDS011;18313;48.518;9.124;2022-12-05T08:24:59;26.60;;;15.00;;
31734;SDS011;18313;48.518;9.124;2022-12-05T08:27:44;21.15;;;11.50;;
31734;SDS011;18313;48.518;9.124;2022-12-05T08:30:30;18.67;;;9.95;;
31734;SDS011;18313;48.518;9.124;2022-12-05T08:33:17;18.33;;;9.13;;
31734;SDS011;18313;48.518;9.124;2022-12-05T08:36:03;15.68;;;8.73;;
31734;SDS011;18313;48.518;9.124;2022-12-05T08:38:54;15.20;;;9.00;;
31734;SDS011;18313;48.518;9.124;2022-12-05T08:41:44;15.82;;;8.93;;
31734;SDS011;18313;48.518;9.124;2022-12-05T08:44:31;19.67;;;10.38;;
31734;SDS011;18313;48.518;9.124;2022-12-05T08:47:16;16.92;;;9.05;;
31734;SDS011;18313;48.518;9.124;2022-12-05T08:50:02;20.85;;;9.45;;
31734;SDS011;18313;48.518;9.124;2022-12-05T08:52:48;19.67;;;9.88;;
31734;SDS011;18313;48.518;9.124;2022-12-05T08:55:33;19.88;;;10.27;;
31734;SDS011;18313;48.518;9.124;2022-12-05T08:58:20;20.98;;;10.77;;
31734;SDS011;18313;48.518;9.124;2022-12-05T09:01:06;19.15;;;11.00;;
31734;SDS011;18313;48.518;9.124;2022-12-05T09:03:56;19.35;;;10.48;;
31734;SDS011;18313;48.518;9.124;2022-12-05T09:06:44;19.75;;;10.68;;
31734;SDS011;18313;48.518;9.124;2022-12-05T09:09:29;18.95;;;10.38;;
31734;SDS011;18313;48.518;9.124;2022-12-05T09:12:16;19.48;;;10.15;;
31734;SDS011;18313;48.518;9.124;2022-12-05T09:15:02;16.88;;;8.85;;
31734;SDS011;18313;48.518;9.124;2022-12-05T09:17:50;17.13;;;8.65;;
31734;SDS011;18313;48.518;9.124;2022-12-05T09:20:37;14.75;;;8.32;;
31734;SDS011;18313;48.518;9.124;2022-12-05T09:23:23;15.82;;;7.30;;
31734;SDS011;18313;48.518;9.124;2022-12-05T09:26:10;13.80;;;7.55;;
31734;SDS011;18313;48.518;9.124;2022-12-05T09:28:57;12.25;;;7.13;;
31734;SDS011;18313;48.518;9.124;2022-12-05T09:31:43;11.90;;;6.68;;
31734;SDS011;18313;48.518;9.124;2022-12-05T09:34:30;11.48;;;6.60;;
31734;SDS011;18313;48.518;9.124;2022-12-05T09:37:15;11.55;;;6.80;;
31734;SDS011;18313;48.518;9.124;2022-12-05T09:40:25;12.90;;;7.55;;
31734;SDS011;18313;48.518;9.124;2022-12-05T09:43:18;12.23;;;7.30;;
31734;SDS011;18313;48.518;9.124;2022-12-05T09:46:23;11.15;;;6.50;;
31734;SDS011;18313;48.518;9.124;2022-12-05T09:49:30;12.07;;;6.93;;
31734;SDS011;18313;48.518;9.124;2022-12-05T09:52:21;11.20;;;6.47;;
31734;SDS011;18313;48.518;9.124;2022-12-05T09:55:22;10.93;;;6.15;;
31734;SDS011;18313;48.518;9.124;2022-12-05T09:58:16;11.40;;;6.82;;
31734;SDS011;18313;48.518;9.124;2022-12-05T10:10:19;10.75;;;6.35;;
31734;SDS011;18313;48.518;9.124;2022-12-05T10:16:03;11.40;;;6.57;;
31734;SDS011;18313;48.518;9.124;2022-12-05T10:18:56;13.40;;;6.05;;
31734;SDS011;18313;48.518;9.124;2022-12-05T10:25:04;12.35;;;6.85;;
31734;SDS011;18313;48.518;9.124;2022-12-05T10:27:51;10.82;;;6.80;;
31734;SDS011;18313;48.518;9.124;2022-12-05T10:30:33;13.35;;;6.10;;
31734;SDS011;18313;48.518;9.124;2022-12-05T10:33:20;10.20;;;6.47;;
31734;SDS011;18313;48.518;9.124;2022-12-05T10:36:09;12.70;;;7.35;;
31734;SDS011;18313;48.518;9.124;2022-12-05T10:38:56;10.77;;;6.38;;
31734;SDS011;18313;48.518;9.124;2022-12-05T10:41:43;13.50;;;6.75;;
31734;SDS011;18313;48.518;9.124;2022-12-05T10:44:29;11.48;;;6.97;;
31734;SDS011;18313;48.518;9.124;2022-12-05T10:47:16;11.20;;;6.65;;
31734;SDS011;18313;48.518;9.124;2022-12-05T10:50:06;12.45;;;6.88;;
31734;SDS011;18313;48.518;9.124;2022-12-05T10:53:03;13.05;;;7.03;;
31734;SDS011;18313;48.518;9.124;2022-12-05T10:55:51;11.90;;;7.22;;
31734;SDS011;18313;48.518;9.124;2022-12-05T10:58:57;12.80;;;6.95;;
31734;SDS011;18313;48.518;9.124;2022-12-05T11:01:46;11.88;;;6.40;;
31734;SDS011;18313;48.518;9.124;2022-12-05T11:04:40;9.15;;;5.75;;
31734;SDS011;18313;48.518;9.124;2022-12-05T11:07:35;12.05;;;6.43;;
31734;SDS011;18313;48.518;9.124;2022-12-05T11:10:34;10.52;;;5.95;;
31734;SDS011;18313;48.518;9.124;2022-12-05T11:13:23;10.73;;;6.13;;
31734;SDS011;18313;48.518;9.124;2022-12-05T11:16:14;10.25;;;5.82;;
31734;SDS011;18313;48.518;9.124;2022-12-05T11:19:17;9.43;;;5.70;;
31734;SDS011;18313;48.518;9.124;2022-12-05T11:22:14;12.32;;;6.00;;
31734;SDS011;18313;48.518;9.124;2022-12-05T11:25:01;10.02;;;5.65;;
31734;SDS011;18313;48.518;9.124;2022-12-05T11:33:58;9.32;;;5.90;;
31734;SDS011;18313;48.518;9.124;2022-12-05T11:36:47;9.45;;;5.88;;
31734;SDS011;18313;48.518;9.124;2022-12-05T11:39:37;9.82;;;6.43;;
31734;SDS011;18313;48.518;9.124;2022-12-05T11:42:26;10.18;;;6.05;;
31734;SDS011;18313;48.518;9.124;2022-12-05T11:45:31;8.43;;;5.50;;
31734;SDS011;18313;48.518;9.124;2022-12-05T11:52:18;8.63;;;4.85;;
31734;SDS011;18313;48.518;9.124;2022-12-05T11:55:23;8.02;;;5.40;;
31734;SDS011;18313;48.518;9.124;2022-12-05T11:58:21;10.60;;;5.50;;
31734;SDS011;18313;48.518;9.124;2022-12-05T12:20:25;7.75;;;4.68;;
31734;SDS011;18313;48.518;9.124;2022-12-05T12:23:27;8.55;;;5.05;;
31734;SDS011;18313;48.518;9.124;2022-12-05T12:26:31;9.77;;;5.60;;
31734;SDS011;18313;48.518;9.124;2022-12-05T12:33:02;20.42;;;9.75;;
31734;SDS011;18313;48.518;9.124;2022-12-05T12:42:02;10.05;;;5.35;;
31734;SDS011;18313;48.518;9.124;2022-12-05T12:48:00;8.35;;;5.10;;
31734;SDS011;18313;48.518;9.124;2022-12-05T12:51:05;8.38;;;5.05;;
31734;SDS011;18313;48.518;9.124;2022-12-05T12:56:56;6.75;;;3.78;;
31734;SDS011;18313;48.518;9.124;2022-12-05T13:00:09;6.25;;;3.58;;
31734;SDS011;18313;48.518;9.124;2022-12-05T13:03:52;6.20;;;3.72;;
31734;SDS011;18313;48.518;9.124;2022-12-05T13:06:26;6.35;;;3.67;;
31734;SDS011;18313;48.518;9.124;2022-12-05T13:12:25;11.35;;;5.28;;
31734;SDS011;18313;48.518;9.124;2022-12-05T13:15:14;6.68;;;4.57;;
31734;SDS011;18313;48.518;9.124;2022-12-05T13:18:02;6.07;;;3.90;;
31734;SDS011;18313;48.518;9.124;2022-12-05T13:20:56;6.90;;;4.28;;
31734;SDS011;18313;48.518;9.124;2022-12-05T13:23:46;5.32;;;3.45;;
31734;SDS011;18313;48.518;9.124;2022-12-05T13:26:33;5.97;;;3.80;;
31734;SDS011;18313;48.518;9.124;2022-12-05T13:29:30;5.95;;;3.90;;
31734;SDS011;18313;48.518;9.124;2022-12-05T13:32:34;8.30;;;3.80;;
31734;SDS011;18313;48.518;9.124;2022-12-05T13:35:35;8.85;;;4.10;;
31734;SDS011;18313;48.518;9.124;2022-12-05T13:38:41;7.03;;;4.03;;
31734;SDS011;18313;48.518;9.124;2022-12-05T13:41:46;6.72;;;3.67;;
31734;SDS011;18313;48.518;9.124;2022-12-05T13:44:57;8.60;;;3.55;;
31734;SDS011;18313;48.518;9.124;2022-12-05T13:53:45;9.73;;;4.75;;
31734;SDS011;18313;48.518;9.124;2022-12-05T13:56:53;6.53;;;3.50;;
31734;SDS011;18313;48.518;9.124;2022-12-05T14:02:50;6.72;;;3.60;;
31734;SDS011;18313;48.518;9.124;2022-12-05T14:05:43;7.68;;;3.40;;
31734;SDS011;18313;48.518;9.124;2022-12-05T14:11:23;9.95;;;5.47;;
31734;SDS011;18313;48.518;9.124;2022-12-05T14:14:08;7.80;;;4.65;;
31734;SDS011;18313;48.518;9.124;2022-12-05T14:16:54;19.17;;;12.10;;
31734;SDS011;18313;48.518;9.124;2022-12-05T14:19:44;7.22;;;4.43;;
31734;SDS011;18313;48.518;9.124;2022-12-05T14:29:37;15.90;;;10.02;;
31734;SDS011;18313;48.518;9.124;2022-12-05T14:32:39;11.50;;;7.57;;
31734;SDS011;18313;48.518;9.124;2022-12-05T14:38:33;4.80;;;2.95;;
31734;SDS011;18313;48.518;9.124;2022-12-05T14:41:23;4.70;;;2.78;;
31734;SDS011;18313;48.518;9.124;2022-12-05T14:44:17;4.70;;;1.92;;
31734;SDS011;18313;48.518;9.124;2022-12-05T14:47:04;3.13;;;1.80;;
31734;SDS011;18313;48.518;9.124;2022-12-05T14:49:58;5.00;;;1.80;;
31734;SDS011;18313;48.518;9.124;2022-12-05T14:56:26;5.55;;;3.25;;
31734;SDS011;18313;48.518;9.124;2022-12-05T15:02:42;3.45;;;1.77;;
31734;SDS011;18313;48.518;9.124;2022-12-05T15:05:31;3.17;;;1.60;;
31734;SDS011;18313;48.518;9.124;2022-12-05T15:08:18;3.50;;;2.00;;
31734;SDS011;18313;48.518;9.124;2022-12-05T15:11:04;3.78;;;1.95;;
31734;SDS011;18313;48.518;9.124;2022-12-05T15:13:50;2.63;;;1.60;;
31734;SDS011;18313;48.518;9.124;2022-12-05T15:16:37;3.58;;;1.80;;
31734;SDS011;18313;48.518;9.124;2022-12-05T15:19:40;3.33;;;1.80;;
31734;SDS011;18313;48.518;9.124;2022-12-05T15:22:28;4.25;;;1.70;;
31734;SDS011;18313;48.518;9.124;2022-12-05T15:25:23;6.05;;;2.25;;
31734;SDS011;18313;48.518;9.124;2022-12-05T15:28:16;18.80;;;7.97;;
31734;SDS011;18313;48.518;9.124;2022-12-05T15:31:04;11.13;;;5.07;;
31734;SDS011;18313;48.518;9.124;2022-12-05T15:33:56;6.03;;;2.45;;
31734;SDS011;18313;48.518;9.124;2022-12-05T15:36:46;3.72;;;1.95;;
31734;SDS011;18313;48.518;9.124;2022-12-05T15:42:52;5.70;;;2.72;;
31734;SDS011;18313;48.518;9.124;2022-12-05T15:45:39;4.90;;;2.67;;
31734;SDS011;18313;48.518;9.124;2022-12-05T15:48:25;4.68;;;2.40;;
31734;SDS011;18313;48.518;9.124;2022-12-05T15:51:11;3.75;;;2.42;;
31734;SDS011;18313;48.518;9.124;2022-12-05T15:53:59;5.05;;;2.65;;
31734;SDS011;18313;48.518;9.124;2022-12-05T15:57:08;5.18;;;2.75;;
31734;SDS011;18313;48.518;9.124;2022-12-05T16:00:15;4.50;;;2.60;;
31734;SDS011;18313;48.518;9.124;2022-12-05T16:03:09;4.20;;;2.65;;
31734;SDS011;18313;48.518;9.124;2022-12-05T16:06:10;5.78;;;2.60;;
31734;SDS011;18313;48.518;9.124;2022-12-05T16:09:08;4.83;;;2.67;;
31734;SDS011;18313;48.518;9.124;2022-12-05T16:15:10;4.05;;;2.38;;
31734;SDS011;18313;48.518;9.124;2022-12-05T16:18:00;6.00;;;2.90;;
31734;SDS011;18313;48.518;9.124;2022-12-05T16:20:47;4.53;;;2.70;;
31734;SDS011;18313;48.518;9.124;2022-12-05T16:23:33;5.22;;;2.80;;
31734;SDS011;18313;48.518;9.124;2022-12-05T16:26:21;6.13;;;3.30;;
31734;SDS011;18313;48.518;9.124;2022-12-05T16:29:31;6.82;;;3.25;;
31734;SDS011;18313;48.518;9.124;2022-12-05T16:32:22;5.72;;;2.88;;
31734;SDS011;18313;48.518;9.124;2022-12-05T16:38:29;5.10;;;3.10;;
31734;SDS011;18313;48.518;9.124;2022-12-05T16:41:15;4.78;;;3.17;;
31734;SDS011;18313;48.518;9.124;2022-12-05T16:44:01;5.85;;;3.20;;
31734;SDS011;18313;48.518;9.124;2022-12-05T16:46:59;4.65;;;2.60;;
31734;SDS011;18313;48.518;9.124;2022-12-05T16:49:44;4.97;;;2.80;;
31734;SDS011;18313;48.518;9.124;2022-12-05T16:52:30;4.63;;;2.80;;
31734;SDS011;18313;48.518;9.124;2022-12-05T16:55:16;9.50;;;6.82;;
31734;SDS011;18313;48.518;9.124;2022-12-05T16:58:02;7.10;;;5.35;;
31734;SDS011;18313;48.518;9.124;2022-12-05T17:00:48;6.80;;;3.30;;
31734;SDS011;18313;48.518;9.124;2022-12-05T17:03:34;5.20;;;2.90;;
31734;SDS011;18313;48.518;9.124;2022-12-05T17:06:21;5.55;;;3.45;;
31734;SDS011;18313;48.518;9.124;2022-12-05T17:09:08;6.10;;;2.95;;
31734;SDS011;18313;48.518;9.124;2022-12-05T17:11:55;4.85;;;2.80;;
31734;SDS011;18313;48.518;9.124;2022-12-05T17:14:57;4.72;;;2.65;;
31734;SDS011;18313;48.518;9.124;2022-12-05T17:17:43;5.13;;;3.00;;
31734;SDS011;18313;48.518;9.124;2022-12-05T17:20:29;6.10;;;3.05;;
31734;SDS011;18313;48.518;9.124;2022-12-05T17:23:15;6.85;;;3.42;;
31734;SDS011;18313;48.518;9.124;2022-12-05T17:26:01;6.05;;;3.70;;
31734;SDS011;18313;48.518;9.124;2022-12-05T17:28:47;7.75;;;4.38;;
31734;SDS011;18313;48.518;9.124;2022-12-05T17:31:34;7.30;;;4.07;;
31734;SDS011;18313;48.518;9.124;2022-12-05T17:34:20;6.88;;;4.13;;
31734;SDS011;18313;48.518;9.124;2022-12-05T17:37:05;7.22;;;4.88;;
31734;SDS011;18313;48.518;9.124;2022-12-05T17:39:51;9.75;;;5.60;;
31734;SDS011;18313;48.518;9.124;2022-12-05T17:42:36;8.73;;;4.85;;
31734;SDS011;18313;48.518;9.124;2022-12-05T17:45:23;5.68;;;4.25;;
31734;SDS011;18313;48.518;9.124;2022-12-05T17:48:12;5.53;;;3.72;;
31734;SDS011;18313;48.518;9.124;2022-12-05T17:50:58;4.28;;;3.20;;
31734;SDS011;18313;48.518;9.124;2022-12-05T17:53:47;4.57;;;2.97;;
31734;SDS011;18313;48.518;9.124;2022-12-05T17:56:33;4.95;;;2.65;;
31734;SDS011;18313;48.518;9.124;2022-12-05T17:59:19;5.50;;;2.65;;
31734;SDS011;18313;48.518;9.124;2022-12-05T18:02:04;5.30;;;3.08;;
31734;SDS011;18313;48.518;9.124;2022-12-05T18:04:50;4.43;;;2.80;;
31734;SDS011;18313;48.518;9.124;2022-12-05T18:07:36;6.03;;;3.20;;
31734;SDS011;18313;48.518;9.124;2022-12-05T18:10:22;5.72;;;3.13;;
31734;SDS011;18313;48.518;9.124;2022-12-05T18:13:09;5.65;;;3.15;;
31734;SDS011;18313;48.518;9.124;2022-12-05T18:15:56;7.32;;;3.47;;
31734;SDS011;18313;48.518;9.124;2022-12-05T18:18:41;4.95;;;3.20;;
31734;SDS011;18313;48.518;9.124;2022-12-05T18:21:27;7.28;;;3.60;;
31734;SDS011;18313;48.518;9.124;2022-12-05T18:24:13;6.22;;;3.65;;
31734;SDS011;18313;48.518;9.124;2022-12-05T18:26:58;6.68;;;4.13;;
31734;SDS011;18313;48.518;9.124;2022-12-05T18:29:46;6.55;;;4.45;;
31734;SDS011;18313;48.518;9.124;2022-12-05T18:32:32;7.55;;;4.60;;
31734;SDS011;18313;48.518;9.124;2022-12-05T18:35:20;6.70;;;3.95;;
31734;SDS011;18313;48.518;9.124;2022-12-05T18:38:24;7.75;;;4.18;;
31734;SDS011;18313;48.518;9.124;2022-12-05T18:41:09;9.38;;;5.63;;
31734;SDS011;18313;48.518;9.124;2022-12-05T18:43:55;9.40;;;5.50;;
31734;SDS011;18313;48.518;9.124;2022-12-05T18:46:40;7.07;;;4.72;;
31734;SDS011;18313;48.518;9.124;2022-12-05T18:49:26;8.38;;;4.90;;
31734;SDS011;18313;48.518;9.124;2022-12-05T18:52:11;6.43;;;4.40;;
31734;SDS011;18313;48.518;9.124;2022-12-05T18:54:57;7.78;;;5.07;;
31734;SDS011;18313;48.518;9.124;2022-12-05T18:58:01;6.70;;;4.20;;
31734;SDS011;18313;48.518;9.124;2022-12-05T19:00:47;6.53;;;4.22;;